Time;durP1;ratioP1;P1;durP2;ratioP2;P2;SDS_P1;SDS_P2;PMS_P1;PMS_P2;Temp;Humidity;BMP_temperature;BMP_pressure;BME280_temperature;BME280_humidity;BME280_pressure;Samples;Min_cycle;Max_cycle;Signal;HPM_P1;HPM_P2
2022/09/05 00:02:33;;;;;;;7.13;4.83;;;13.70;99.90;;;;;;5097785;28;20310;-79
2022/09/05 00:05:34;;;;;;;6.53;4.67;;;13.60;99.90;;;;;;5096073;28;20210;-79
2022/09/05 00:08:24;;;;;;;7.73;5.07;;;13.50;99.90;;;;;;5090260;28;20218;-79
2022/09/05 00:11:05;;;;;;;5.40;4.60;;;13.50;99.90;;;;;;5086531;28;20311;-80
2022/09/05 00:14:23;;;;;;;6.00;4.70;;;13.50;99.90;;;;;;5086741;28;20206;-79
2022/09/05 00:17:20;;;;;;;5.37;4.80;;;13.40;99.90;;;;;;5086391;28;20199;-78
2022/09/05 00:19:58;;;;;;;8.23;5.20;;;13.40;99.90;;;;;;5083398;28;20203;-77
2022/09/05 00:22:55;;;;;;;6.23;5.13;;;13.40;99.90;;;;;;5075639;28;20208;-79
2022/09/05 00:26:03;;;;;;;5.47;4.97;;;13.30;99.90;;;;;;5075376;28;20196;-79
2022/09/05 00:28:38;;;;;;;6.43;5.30;;;13.30;99.90;;;;;;5077803;28;20196;-80
2022/09/05 00:31:26;;;;;;;6.67;5.67;;;13.30;99.90;;;;;;5074854;28;20792;-78
2022/09/05 00:34:26;;;;;;;6.57;5.17;;;13.30;99.90;;;;;;5076680;28;20206;-77
2022/09/05 00:37:30;;;;;;;5.83;5.20;;;13.30;99.90;;;;;;5081687;28;20200;-76
2022/09/05 00:40:19;;;;;;;12.50;5.03;;;13.30;99.90;;;;;;5078690;28;20238;-80
2022/09/05 00:42:50;;;;;;;5.17;4.67;;;13.30;99.90;;;;;;5076918;28;20192;-78
2022/09/05 00:45:30;;;;;;;8.13;6.30;;;13.30;99.90;;;;;;5076706;28;20192;-80
2022/09/05 00:48:10;;;;;;;6.47;5.87;;;13.30;99.90;;;;;;5076129;28;20254;-79
2022/09/05 00:50:57;;;;;;;6.27;5.67;;;13.30;99.90;;;;;;5075718;28;20214;-78
2022/09/05 00:53:37;;;;;;;8.40;6.47;;;13.30;99.90;;;;;;5059629;28;20271;-79
2022/09/05 00:56:22;;;;;;;7.17;6.20;;;13.30;99.90;;;;;;5075781;28;20290;-80
2022/09/05 00:58:58;;;;;;;7.27;6.23;;;13.40;99.90;;;;;;5092226;28;20297;-78
2022/09/05 01:01:31;;;;;;;8.13;6.10;;;13.40;99.90;;;;;;5095617;28;20191;-79
2022/09/05 01:04:29;;;;;;;6.97;5.93;;;13.40;99.90;;;;;;5095329;28;20286;-80
2022/09/05 01:07:17;;;;;;;7.23;6.40;;;13.30;99.90;;;;;;5094561;28;20241;-80
2022/09/05 01:10:02;;;;;;;8.03;6.43;;;13.30;99.90;;;;;;5095330;28;20293;-80
2022/09/05 01:13:02;;;;;;;6.50;5.90;;;13.30;99.90;;;;;;5095379;28;20268;-78
2022/09/05 01:15:36;;;;;;;6.77;6.00;;;13.30;99.90;;;;;;5095000;28;20297;-80
2022/09/05 01:18:28;;;;;;;6.50;5.80;;;13.30;99.90;;;;;;5095102;28;20191;-81
2022/09/05 01:21:33;;;;;;;6.73;6.03;;;13.20;99.90;;;;;;5082979;28;20225;-80
2022/09/05 01:24:47;;;;;;;7.23;5.53;;;13.20;99.90;;;;;;5077080;28;20301;-79
2022/09/05 01:27:48;;;;;;;7.17;5.53;;;13.10;99.90;;;;;;5085136;28;20586;-79
2022/09/05 01:30:41;;;;;;;6.50;5.00;;;13.00;99.90;;;;;;5094792;28;20214;-80
2022/09/05 01:33:19;;;;;;;7.83;5.33;;;13.00;99.90;;;;;;5094801;28;20578;-80
2022/09/05 01:36:26;;;;;;;7.63;5.60;;;12.90;99.90;;;;;;5094818;28;20717;-79
2022/09/05 01:39:03;;;;;;;8.03;5.47;;;12.90;99.90;;;;;;5094452;28;20199;-78
2022/09/05 01:41:57;;;;;;;9.40;5.37;;;12.90;99.90;;;;;;5094643;28;20219;-78
2022/09/05 01:44:43;;;;;;;10.90;6.10;;;12.80;99.90;;;;;;5094594;28;20245;-80
2022/09/05 01:47:37;;;;;;;6.70;5.60;;;12.80;99.90;;;;;;5094561;28;20195;-78
2022/09/05 01:50:33;;;;;;;7.13;5.87;;;12.80;99.90;;;;;;5093807;28;20916;-79
2022/09/05 01:53:24;;;;;;;6.80;5.80;;;12.80;99.90;;;;;;5094569;28;20266;-80
2022/09/05 01:56:22;;;;;;;7.17;5.67;;;12.70;99.90;;;;;;5094069;28;20205;-79
2022/09/05 01:59:02;;;;;;;8.17;5.67;;;12.70;99.90;;;;;;5085357;28;20203;-80
2022/09/05 02:01:41;;;;;;;6.03;5.47;;;12.70;99.90;;;;;;5094116;28;20279;-79
2022/09/05 02:04:46;;;;;;;6.13;5.03;;;12.60;99.90;;;;;;5094810;28;20186;-78
2022/09/05 02:07:29;;;;;;;8.23;5.50;;;12.60;99.90;;;;;;5093854;28;20241;-79
2022/09/05 02:10:25;;;;;;;5.60;4.97;;;12.60;99.90;;;;;;5093730;28;20191;-79
2022/09/05 02:13:02;;;;;;;6.37;5.33;;;12.50;99.90;;;;;;5093176;28;20256;-79
2022/09/05 02:15:45;;;;;;;6.07;5.17;;;12.50;99.90;;;;;;5094445;28;20199;-78
2022/09/05 02:18:43;;;;;;;6.37;5.27;;;12.40;99.90;;;;;;5093855;28;20211;-79
2022/09/05 02:21:21;;;;;;;8.60;4.97;;;12.40;99.90;;;;;;5093638;28;20186;-80
2022/09/05 02:24:02;;;;;;;6.60;5.40;;;12.40;99.90;;;;;;5093357;28;20645;-79
2022/09/05 02:26:36;;;;;;;6.40;5.17;;;12.30;99.90;;;;;;5093766;28;20222;-79
2022/09/05 02:29:12;;;;;;;6.27;5.40;;;12.30;99.90;;;;;;5093372;28;20289;-80
2022/09/05 02:32:01;;;;;;;6.53;5.10;;;12.30;99.90;;;;;;5093323;28;20222;-80
2022/09/05 02:34:40;;;;;;;7.50;5.27;;;12.30;99.90;;;;;;5093765;28;20195;-80
2022/09/05 02:37:18;;;;;;;6.90;5.07;;;12.20;99.90;;;;;;5093688;28;20217;-80
2022/09/05 02:40:17;;;;;;;5.73;5.10;;;12.20;99.90;;;;;;5093026;28;20652;-81
2022/09/05 02:43:14;;;;;;;7.87;5.60;;;12.20;99.90;;;;;;5093171;28;20199;-80
2022/09/05 02:46:07;;;;;;;7.07;5.40;;;12.20;99.90;;;;;;5092684;28;20293;-79
2022/09/05 02:48:50;;;;;;;9.67;5.60;;;12.20;99.90;;;;;;5092747;28;20201;-79
2022/09/05 02:51:26;;;;;;;5.73;5.07;;;12.20;99.90;;;;;;5092560;28;20237;-80
2022/09/05 02:54:20;;;;;;;6.23;4.57;;;12.20;99.90;;;;;;5092827;28;20546;-80
2022/09/05 02:57:32;;;;;;;5.37;4.77;;;12.10;99.90;;;;;;5092565;28;20210;-79
2022/09/05 03:00:24;;;;;;;8.57;5.70;;;12.10;99.90;;;;;;5091991;28;20203;-80
2022/09/05 03:03:14;;;;;;;7.03;5.57;;;12.10;99.90;;;;;;5091828;28;20252;-78
2022/09/05 03:05:50;;;;;;;6.70;5.83;;;12.10;99.90;;;;;;5092490;28;20187;-78
2022/09/05 03:08:35;;;;;;;8.70;5.60;;;12.10;99.90;;;;;;5092522;28;20219;-79
2022/09/05 03:11:37;;;;;;;8.33;7.00;;;12.10;99.90;;;;;;5092132;28;20278;-78
2022/09/05 03:14:37;;;;;;;9.43;7.80;;;12.10;99.90;;;;;;5079238;28;20292;-79
2022/09/05 03:17:41;;;;;;;9.47;8.47;;;12.20;99.90;;;;;;5092028;28;20546;-79
2022/09/05 03:20:42;;;;;;;10.73;9.70;;;12.30;99.90;;;;;;5091904;28;20731;-78
2022/09/05 03:23:41;;;;;;;11.43;10.07;;;12.40;99.90;;;;;;5092349;28;20241;-80
2022/09/05 03:26:45;;;;;;;12.93;11.00;;;12.40;99.90;;;;;;5092023;28;20333;-80
2022/09/05 03:29:41;;;;;;;11.90;10.67;;;12.40;99.90;;;;;;5091897;28;20257;-80
2022/09/05 03:32:47;;;;;;;12.60;11.03;;;12.40;99.90;;;;;;5090429;28;20258;-81
2022/09/05 03:35:48;;;;;;;12.47;9.33;;;12.40;99.90;;;;;;5091982;28;20669;-79
2022/09/05 03:39:13;;;;;;;11.43;10.10;;;12.30;99.90;;;;;;5082686;28;20304;-80
2022/09/05 03:42:14;;;;;;;12.30;10.47;;;12.30;99.90;;;;;;5091899;28;20295;-79
2022/09/05 03:44:53;;;;;;;10.83;9.73;;;12.30;99.90;;;;;;5074365;28;20256;-78
2022/09/05 03:48:07;;;;;;;12.87;11.50;;;12.30;99.90;;;;;;5092010;28;20285;-80
2022/09/05 03:51:04;;;;;;;15.77;11.90;;;12.30;99.90;;;;;;5070590;28;20218;-80
2022/09/05 03:54:34;;;;;;;12.27;10.50;;;12.30;99.90;;;;;;5082890;28;20236;-78
2022/09/05 03:57:35;;;;;;;12.30;10.93;;;12.30;99.90;;;;;;5080151;28;20783;-80
2022/09/05 04:00:19;;;;;;;11.13;10.03;;;12.20;99.90;;;;;;5071487;28;20223;-79
2022/09/05 04:03:03;;;;;;;12.07;10.43;;;12.20;99.90;;;;;;5071891;28;20631;-78
2022/09/05 04:05:55;;;;;;;13.53;11.37;;;12.20;99.90;;;;;;5071360;28;20208;-79
2022/09/05 04:08:48;;;;;;;14.00;11.80;;;12.20;99.90;;;;;;5070838;28;20215;-79
2022/09/05 04:11:27;;;;;;;13.30;11.37;;;12.20;99.90;;;;;;5070988;28;20192;-78
2022/09/05 04:14:02;;;;;;;14.43;12.93;;;12.20;99.90;;;;;;5071703;28;20227;-78
2022/09/05 04:16:33;;;;;;;14.50;12.03;;;12.20;99.90;;;;;;5071169;28;20719;-79
2022/09/05 04:19:12;;;;;;;13.40;12.10;;;12.30;99.90;;;;;;5071135;28;20688;-80
2022/09/05 04:21:47;;;;;;;15.27;13.57;;;12.30;99.90;;;;;;5071464;28;20604;-79
2022/09/05 04:24:28;;;;;;;13.30;11.97;;;12.30;99.90;;;;;;5071751;28;20242;-81
2022/09/05 04:27:07;;;;;;;13.87;12.10;;;12.30;99.90;;;;;;5071520;28;20200;-79
2022/09/05 04:29:49;;;;;;;14.57;13.07;;;12.20;99.90;;;;;;5073560;28;20215;-80
2022/09/05 04:32:28;;;;;;;14.80;12.00;;;12.30;99.90;;;;;;5075151;28;20677;-78
2022/09/05 04:35:10;;;;;;;15.47;13.70;;;12.30;99.90;;;;;;5074441;28;20203;-79
2022/09/05 04:37:49;;;;;;;15.63;13.77;;;12.40;99.90;;;;;;5074839;28;20234;-79
2022/09/05 04:40:59;;;;;;;14.70;13.10;;;12.40;99.90;;;;;;5074801;28;20634;-80
2022/09/05 04:43:34;;;;;;;15.70;13.10;;;12.40;99.90;;;;;;5032400;28;20232;-79
2022/09/05 04:46:19;;;;;;;15.47;13.43;;;12.40;99.90;;;;;;5070018;28;20243;-79
2022/09/05 04:48:56;;;;;;;14.30;12.83;;;12.40;99.90;;;;;;5074172;28;20187;-78
2022/09/05 04:51:48;;;;;;;13.80;12.30;;;12.40;99.90;;;;;;5077514;28;20245;-81
2022/09/05 04:54:34;;;;;;;14.03;12.63;;;12.40;99.90;;;;;;5094842;28;20206;-80
2022/09/05 04:57:15;;;;;;;14.43;12.07;;;12.40;99.90;;;;;;5095277;28;20206;-78
2022/09/05 04:59:51;;;;;;;14.40;12.50;;;12.40;99.90;;;;;;5094580;28;20387;-80
2022/09/05 05:02:45;;;;;;;15.33;13.10;;;12.50;99.90;;;;;;5094799;28;20217;-79
2022/09/05 05:05:50;;;;;;;13.87;12.47;;;12.50;99.90;;;;;;5094781;28;20220;-79
2022/09/05 05:08:46;;;;;;;15.40;12.30;;;12.50;99.90;;;;;;5094879;28;20218;-78
2022/09/05 05:11:18;;;;;;;14.87;13.37;;;12.50;99.90;;;;;;5094007;28;20191;-79
2022/09/05 05:14:10;;;;;;;15.07;13.53;;;12.60;99.90;;;;;;5093906;28;20227;-78
2022/09/05 05:17:04;;;;;;;15.13;13.53;;;12.60;99.90;;;;;;5094029;28;20221;-78
2022/09/05 05:20:01;;;;;;;13.90;12.43;;;12.70;99.90;;;;;;5094352;28;20207;-80
2022/09/05 05:22:58;;;;;;;15.43;12.57;;;12.70;99.90;;;;;;5094134;28;20210;-79
2022/09/05 05:25:45;;;;;;;14.77;11.50;;;12.70;99.90;;;;;;5094641;28;20191;-79
2022/09/05 05:28:19;;;;;;;12.73;11.00;;;12.80;99.90;;;;;;5095752;28;20615;-80
2022/09/05 05:30:52;;;;;;;12.63;11.33;;;12.80;99.90;;;;;;5093815;28;20214;-79
2022/09/05 05:33:31;;;;;;;11.60;10.40;;;12.80;99.90;;;;;;5093696;28;20305;-79
2022/09/05 05:36:03;;;;;;;12.03;9.90;;;12.80;99.90;;;;;;5094458;28;20286;-80
2022/09/05 05:38:39;;;;;;;11.80;9.93;;;12.90;99.90;;;;;;5094243;28;20248;-78
2022/09/05 05:41:17;;;;;;;12.07;10.03;;;12.90;99.90;;;;;;5093734;28;20321;-78
2022/09/05 05:43:47;;;;;;;11.40;10.17;;;12.90;99.90;;;;;;5093824;28;20257;-78
2022/09/05 05:46:34;;;;;;;11.60;9.23;;;12.90;99.90;;;;;;5093074;28;20275;-78
2022/09/05 05:49:26;;;;;;;14.03;9.97;;;13.00;99.90;;;;;;5093658;28;20207;-78
2022/09/05 05:52:19;;;;;;;11.37;9.80;;;13.00;99.90;;;;;;5093817;28;20293;-79
2022/09/05 05:54:52;;;;;;;10.50;9.47;;;13.00;99.90;;;;;;5093462;28;20217;-80
2022/09/05 05:58:02;;;;;;;10.20;9.10;;;13.10;99.90;;;;;;5101362;28;20293;-78
2022/09/05 06:00:49;;;;;;;9.87;8.87;;;13.20;99.90;;;;;;5093651;28;20680;-79
2022/09/05 06:03:53;;;;;;;9.33;8.43;;;13.30;99.90;;;;;;5093815;28;20297;-80
2022/09/05 06:06:34;;;;;;;9.80;8.33;;;13.40;99.90;;;;;;5093650;28;20202;-80
2022/09/05 06:09:39;;;;;;;10.77;7.30;;;13.60;99.90;;;;;;5093429;28;20210;-78
2022/09/05 06:13:13;;;;;;;8.60;6.53;;;13.70;99.90;;;;;;5093111;28;20205;-80
2022/09/05 06:16:39;;;;;;;7.60;5.60;;;14.10;99.90;;;;;;5095849;28;20202;-79
2022/09/05 06:19:39;;;;;;;7.23;4.80;;;14.50;99.90;;;;;;5077447;28;20557;-78
2022/09/05 06:22:53;;;;;;;5.67;5.17;;;14.90;99.90;;;;;;5087963;28;20267;-79
2022/09/05 06:25:57;;;;;;;5.67;5.03;;;15.40;99.90;;;;;;5075237;28;20705;-79
2022/09/05 06:28:43;;;;;;;6.27;4.37;;;15.70;99.90;;;;;;5044462;28;20266;-78
2022/09/05 06:31:21;;;;;;;5.07;4.17;;;16.20;99.90;;;;;;5073747;28;20314;-78
2022/09/05 06:34:16;;;;;;;6.43;4.30;;;16.50;99.90;;;;;;5075772;28;20247;-79
2022/09/05 06:37:14;;;;;;;7.23;4.37;;;16.70;99.90;;;;;;5072876;28;20285;-78
2022/09/05 06:40:02;;;;;;;8.67;4.40;;;16.80;99.90;;;;;;5072615;28;20207;-78
2022/09/05 06:42:39;;;;;;;5.07;4.30;;;17.20;99.90;;;;;;5072661;28;20196;-78
2022/09/05 06:45:37;;;;;;;6.07;4.10;;;17.60;99.90;;;;;;5072952;28;20191;-78
2022/09/05 06:48:15;;;;;;;4.03;3.63;;;17.80;99.90;;;;;;5072382;28;20277;-78
2022/09/05 06:51:45;;;;;;;5.80;3.70;;;18.00;99.90;;;;;;5082830;28;20582;-78
2022/09/05 06:55:01;;;;;;;4.43;3.80;;;18.10;99.90;;;;;;5009997;28;20788;-80
2022/09/05 06:57:50;;;;;;;6.33;4.07;;;18.10;99.90;;;;;;5112771;28;20237;-79
2022/09/05 07:00:22;;;;;;;4.30;3.80;;;18.30;99.90;;;;;;5109982;28;20332;-78
2022/09/05 07:03:15;;;;;;;4.20;3.80;;;18.30;99.90;;;;;;5072381;28;20631;-79
2022/09/05 07:05:53;;;;;;;5.93;3.67;;;18.50;99.90;;;;;;5076457;28;21401;-79
2022/09/05 07:08:33;;;;;;;5.03;3.83;;;18.70;99.90;;;;;;5096766;28;20198;-77
2022/09/05 07:11:10;;;;;;;4.57;3.50;;;18.80;99.90;;;;;;5112266;28;20202;-79
2022/09/05 07:13:56;;;;;;;3.50;3.20;;;19.50;99.90;;;;;;5092143;28;20215;-76
2022/09/05 07:16:42;;;;;;;5.83;3.53;;;20.30;99.90;;;;;;5092236;28;20191;-77
2022/09/05 07:19:32;;;;;;;4.17;3.23;;;20.40;99.90;;;;;;5091790;28;20199;-76
2022/09/05 07:22:14;;;;;;;4.50;2.87;;;21.30;99.90;;;;;;5092098;28;20199;-78
2022/09/05 07:25:06;;;;;;;4.90;3.53;;;21.50;99.90;;;;;;5092343;28;20232;-77
2022/09/05 07:27:42;;;;;;;4.33;3.00;;;22.10;99.90;;;;;;5091673;28;20657;-77
2022/09/05 07:30:32;;;;;;;3.97;3.03;;;21.80;99.90;;;;;;5091757;28;20218;-76
2022/09/05 07:33:02;;;;;;;5.43;3.30;;;22.40;99.90;;;;;;5092450;28;20191;-78
2022/09/05 07:35:34;;;;;;;5.77;3.40;;;22.80;99.90;;;;;;5091183;28;20885;-76
2022/09/05 07:38:14;;;;;;;6.10;3.30;;;22.70;99.90;;;;;;5092397;28;20210;-76
2022/09/05 07:40:50;;;;;;;5.20;3.17;;;23.30;99.90;;;;;;5091922;28;20198;-78
2022/09/05 07:43:23;;;;;;;3.63;3.13;;;23.70;99.90;;;;;;5092406;28;20194;-76
2022/09/05 07:46:10;;;;;;;3.93;3.00;;;23.70;99.90;;;;;;5092051;28;20660;-76
2022/09/05 07:48:42;;;;;;;5.10;3.00;;;24.00;99.90;;;;;;5092179;28;20633;-77
2022/09/05 07:51:21;;;;;;;3.17;2.87;;;24.20;99.90;;;;;;5092358;28;20206;-77
2022/09/05 07:54:17;;;;;;;3.20;2.73;;;24.60;99.90;;;;;;5092077;28;20235;-77
2022/09/05 07:57:08;;;;;;;3.57;2.80;;;24.90;99.90;;;;;;5088576;28;20242;-77
2022/09/05 08:00:04;;;;;;;3.57;2.60;;;25.10;99.90;;;;;;5084883;28;20207;-77
2022/09/05 08:02:34;;;;;;;4.93;2.40;;;24.80;99.90;;;;;;5087721;28;20303;-77
2022/09/05 08:05:05;;;;;;;6.13;2.80;;;25.00;99.90;;;;;;5095669;28;20203;-76
2022/09/05 08:07:38;;;;;;;3.47;2.55;;;25.50;99.90;;;;;;5095562;28;20206;-77
2022/09/05 08:10:22;;;;;;;2.97;2.60;;;25.30;99.90;;;;;;5094546;28;20706;-78
2022/09/05 08:13:13;;;;;;;2.60;2.40;;;25.40;99.90;;;;;;5094727;28;20333;-77
2022/09/05 08:16:02;;;;;;;3.13;2.30;;;25.50;99.90;;;;;;5094600;28;20214;-78
2022/09/05 08:18:46;;;;;;;4.60;2.38;;;26.80;99.90;;;;;;5095442;28;20198;-78
2022/09/05 08:21:22;;;;;;;2.63;2.38;;;27.00;99.90;;;;;;5095312;28;20191;-77
2022/09/05 08:24:04;;;;;;;2.72;2.15;;;27.30;99.90;;;;;;5095265;28;20245;-76
2022/09/05 08:26:45;;;;;;;2.35;2.15;;;28.40;99.90;;;;;;5095474;28;20233;-77
2022/09/05 08:29:26;;;;;;;2.30;2.10;;;29.60;99.80;;;;;;5095100;28;20203;-77
2022/09/05 08:32:07;;;;;;;2.30;2.10;;;29.00;99.90;;;;;;5095185;28;20641;-79
2022/09/05 08:34:42;;;;;;;2.70;2.20;;;28.50;99.90;;;;;;5094809;28;20259;-78
2022/09/05 08:37:17;;;;;;;3.67;2.20;;;28.70;99.80;;;;;;5095012;28;20233;-79
2022/09/05 08:39:52;;;;;;;4.53;2.75;;;29.30;99.60;;;;;;5095082;28;20245;-79
2022/09/05 08:42:46;;;;;;;5.00;2.10;;;30.40;97.30;;;;;;5095383;28;20248;-78
2022/09/05 08:45:41;;;;;;;3.90;2.50;;;30.80;95.90;;;;;;5094905;28;20203;-77
2022/09/05 08:48:44;;;;;;;3.00;2.22;;;31.50;95.10;;;;;;5094912;28;20286;-79
2022/09/05 08:51:32;;;;;;;5.50;2.30;;;31.10;94.30;;;;;;5095120;28;20227;-80
2022/09/05 08:54:18;;;;;;;3.53;2.47;;;31.60;93.70;;;;;;5094426;28;20829;-79
2022/09/05 08:56:57;;;;;;;4.85;2.08;;;31.90;92.70;;;;;;5094788;28;20285;-79
2022/09/05 08:59:39;;;;;;;2.35;2.08;;;32.10;93.10;;;;;;5093817;28;20212;-79
2022/09/05 09:02:56;;;;;;;4.97;2.17;;;31.90;92.30;;;;;;5094675;28;20320;-79
2022/09/05 09:06:07;;;;;;;2.90;2.13;;;31.20;92.80;;;;;;5094682;28;20244;-79
2022/09/05 09:08:53;;;;;;;4.68;2.47;;;30.70;92.60;;;;;;5092769;28;20549;-78
2022/09/05 09:11:30;;;;;;;3.80;2.53;;;30.00;93.40;;;;;;5092118;28;20187;-78
2022/09/05 09:14:23;;;;;;;3.78;2.25;;;29.50;95.10;;;;;;5091993;28;20218;-77
2022/09/05 09:17:03;;;;;;;2.10;1.80;;;30.10;94.70;;;;;;5093101;28;20192;-78
2022/09/05 09:19:45;;;;;;;2.70;2.10;;;31.10;92.80;;;;;;5086452;28;20292;-77
2022/09/05 09:22:20;;;;;;;3.25;2.08;;;32.50;91.10;;;;;;5093053;28;20678;-77
2022/09/05 09:25:01;;;;;;;2.17;1.90;;;31.70;91.40;;;;;;5093352;28;20856;-76
2022/09/05 09:28:35;;;;;;;2.90;1.90;;;31.20;90.70;;;;;;5093176;28;20565;-77
2022/09/05 09:31:35;;;;;;;3.22;2.08;;;31.30;90.90;;;;;;5030569;28;20297;-76
2022/09/05 09:34:31;;;;;;;3.25;1.88;;;30.80;90.90;;;;;;5094555;28;20217;-76
2022/09/05 09:37:41;;;;;;;3.53;2.17;;;31.20;90.30;;;;;;5093442;28;20252;-77
2022/09/05 09:41:01;;;;;;;3.40;1.80;;;31.40;91.70;;;;;;5093971;28;20210;-76
2022/09/05 09:43:49;;;;;;;2.38;1.90;;;31.40;91.10;;;;;;5094264;28;20195;-78
2022/09/05 09:46:34;;;;;;;2.03;1.90;;;31.50;90.70;;;;;;5086243;28;20276;-77
2022/09/05 09:49:36;;;;;;;4.47;2.00;;;31.90;90.70;;;;;;5093175;28;20195;-78
2022/09/05 09:52:39;;;;;;;3.83;1.98;;;32.40;90.50;;;;;;5091873;28;20222;-80
2022/09/05 09:55:48;;;;;;;2.45;1.90;;;32.90;90.40;;;;;;5092326;28;20223;-78
2022/09/05 09:58:31;;;;;;;3.70;1.80;;;33.30;87.40;;;;;;5091842;28;20570;-77
2022/09/05 10:01:12;;;;;;;3.80;2.13;;;33.00;83.60;;;;;;5085881;28;20274;-79
2022/09/05 10:04:21;;;;;;;2.50;1.70;;;33.30;85.20;;;;;;5089568;28;20201;-81
2022/09/05 10:07:34;;;;;;;2.10;1.70;;;32.90;84.90;;;;;;5082049;28;20233;-78
2022/09/05 10:10:51;;;;;;;2.78;1.73;;;33.50;84.30;;;;;;5090817;28;20632;-76
2022/09/05 10:14:25;;;;;;;2.60;1.63;;;33.90;79.10;;;;;;5091332;28;20233;-76
2022/09/05 10:17:38;;;;;;;2.50;1.52;;;34.10;78.60;;;;;;5088213;28;20600;-81
2022/09/05 10:20:39;;;;;;;3.38;1.70;;;34.40;79.10;;;;;;5093587;28;20210;-81
2022/09/05 10:23:39;;;;;;;1.77;1.67;;;34.50;75.60;;;;;;5081637;28;20252;-77
2022/09/05 10:26:51;;;;;;;2.58;1.60;;;34.90;74.80;;;;;;5090536;28;20215;-78
2022/09/05 10:29:42;;;;;;;1.80;1.60;;;34.10;76.30;;;;;;5088208;28;20258;-77
2022/09/05 10:32:15;;;;;;;1.70;1.60;;;34.30;74.20;;;;;;5089296;28;20289;-79
2022/09/05 10:35:18;;;;;;;3.22;1.80;;;32.90;76.90;;;;;;5088159;28;20213;-77
2022/09/05 10:37:57;;;;;;;2.08;1.77;;;31.50;76.10;;;;;;5093242;28;20230;-80
2022/09/05 10:40:28;;;;;;;1.77;1.45;;;31.20;76.10;;;;;;5092079;28;20285;-76
2022/09/05 10:43:12;;;;;;;2.35;1.63;;;31.80;80.20;;;;;;5092320;28;20661;-78
2022/09/05 10:45:48;;;;;;;2.67;1.50;;;31.90;75.60;;;;;;5092311;28;20191;-80
2022/09/05 10:48:23;;;;;;;4.07;1.48;;;32.10;76.80;;;;;;5092705;28;20250;-80
2022/09/05 10:50:59;;;;;;;2.15;1.55;;;32.10;75.90;;;;;;5092484;28;20219;-79
2022/09/05 10:53:43;;;;;;;2.55;1.70;;;31.90;80.00;;;;;;5092416;28;20741;-79
2022/09/05 10:56:14;;;;;;;2.45;1.73;;;31.90;77.60;;;;;;5091804;28;20264;-78
2022/09/05 10:59:00;;;;;;;1.77;1.65;;;32.50;76.10;;;;;;5086112;28;20206;-78
2022/09/05 11:01:59;;;;;;;2.97;1.80;;;32.70;77.60;;;;;;5089737;28;20215;-77
2022/09/05 11:04:53;;;;;;;2.03;1.60;;;32.00;75.10;;;;;;5092173;28;20203;-78
2022/09/05 11:07:28;;;;;;;2.08;1.30;;;32.40;78.10;;;;;;5092379;28;20191;-78
2022/09/05 11:10:06;;;;;;;1.50;1.40;;;32.20;75.90;;;;;;5089995;28;20305;-77
2022/09/05 11:12:50;;;;;;;2.15;1.60;;;32.60;75.70;;;;;;5095996;28;20230;-77
2022/09/05 11:15:32;;;;;;;3.47;1.45;;;32.60;77.20;;;;;;5089762;28;20207;-77
2022/09/05 11:18:03;;;;;;;2.20;1.45;;;32.60;74.60;;;;;;5091843;28;20191;-78
2022/09/05 11:20:47;;;;;;;2.40;1.60;;;32.60;76.50;;;;;;5091321;28;20253;-77
2022/09/05 11:23:20;;;;;;;2.38;1.67;;;33.00;76.10;;;;;;5091104;28;20221;-76
2022/09/05 11:25:59;;;;;;;2.03;1.80;;;32.90;75.80;;;;;;5091975;28;20192;-76
2022/09/05 11:28:35;;;;;;;3.45;1.63;;;32.50;78.30;;;;;;5092518;28;20263;-77
2022/09/05 11:31:41;;;;;;;2.30;1.55;;;32.40;75.30;;;;;;5091330;28;20684;-76
2022/09/05 11:35:02;;;;;;;2.70;1.50;;;31.90;77.60;;;;;;5071564;28;20581;-77
2022/09/05 11:38:22;;;;;;;3.10;1.77;;;31.50;77.10;;;;;;5074067;28;20230;-76
2022/09/05 11:41:41;;;;;;;1.70;1.60;;;30.90;80.10;;;;;;5078232;28;20218;-76
2022/09/05 11:44:28;;;;;;;3.40;1.63;;;30.40;78.10;;;;;;5078400;28;20211;-77
2022/09/05 11:47:50;;;;;;;3.20;2.10;;;30.20;81.00;;;;;;5078360;28;20288;-78
2022/09/05 11:50:45;;;;;;;2.73;1.80;;;29.40;81.70;;;;;;4982704;28;20210;-77
2022/09/05 11:54:02;;;;;;;2.10;1.90;;;28.70;83.00;;;;;;5079110;28;20203;-76
2022/09/05 11:57:13;;;;;;;3.60;1.90;;;28.80;82.90;;;;;;5071676;28;20313;-77
2022/09/05 12:00:18;;;;;;;2.80;2.07;;;28.70;84.30;;;;;;5088280;28;20210;-78
2022/09/05 12:03:40;;;;;;;2.90;1.90;;;28.80;88.50;;;;;;5098274;28;20553;-78
2022/09/05 12:07:04;;;;;;;2.10;1.70;;;29.00;84.70;;;;;;5097696;28;20321;-78
2022/09/05 12:10:08;;;;;;;2.60;1.77;;;28.90;86.80;;;;;;5097939;28;20214;-78
2022/09/05 12:13:16;;;;;;;3.00;1.60;;;29.00;87.60;;;;;;5098006;28;20210;-79
2022/09/05 12:15:52;;;;;;;2.07;1.70;;;28.30;84.90;;;;;;5098256;28;20237;-77
2022/09/05 12:18:43;;;;;;;5.80;2.50;;;28.30;87.70;;;;;;5098291;28;20625;-79
2022/09/05 12:21:27;;;;;;;5.23;2.40;;;28.40;88.50;;;;;;5098439;28;20217;-78
2022/09/05 12:24:06;;;;;;;3.27;1.80;;;28.50;89.00;;;;;;5098089;28;20214;-78
2022/09/05 12:27:00;;;;;;;3.60;2.20;;;28.30;87.80;;;;;;5098747;28;20210;-77
2022/09/05 12:29:54;;;;;;;2.70;1.93;;;28.50;87.70;;;;;;5098044;28;20225;-77
2022/09/05 12:32:30;;;;;;;2.30;2.00;;;28.20;88.30;;;;;;5098028;28;20256;-78
2022/09/05 12:35:30;;;;;;;3.30;1.83;;;28.10;87.30;;;;;;5099547;28;20289;-77
2022/09/05 12:38:31;;;;;;;4.60;1.97;;;27.90;89.00;;;;;;5092270;28;20621;-78
2022/09/05 12:41:22;;;;;;;2.23;1.60;;;28.00;90.20;;;;;;5096798;28;20202;-78
2022/09/05 12:44:42;;;;;;;3.40;1.70;;;28.00;89.40;;;;;;5093245;28;20218;-77
2022/09/05 12:47:14;;;;;;;2.87;1.87;;;28.20;88.50;;;;;;5097682;28;20199;-79
2022/09/05 12:49:56;;;;;;;2.40;1.67;;;27.70;86.90;;;;;;5095851;28;20195;-77
2022/09/05 12:52:41;;;;;;;1.90;1.70;;;28.00;90.10;;;;;;5096428;28;20218;-76
2022/09/05 12:55:19;;;;;;;5.97;2.00;;;28.00;88.20;;;;;;5095397;28;20424;-77
2022/09/05 12:57:54;;;;;;;3.70;1.80;;;27.90;90.60;;;;;;5095790;28;20206;-76
2022/09/05 13:00:44;;;;;;;2.87;2.00;;;27.80;89.60;;;;;;5096313;28;20195;-77
2022/09/05 13:03:36;;;;;;;3.47;2.00;;;27.80;90.10;;;;;;5095335;28;20203;-77
2022/09/05 13:06:31;;;;;;;3.03;1.73;;;28.00;90.40;;;;;;5095869;28;20314;-77
2022/09/05 13:09:05;;;;;;;2.17;1.90;;;28.10;90.40;;;;;;5095869;28;20258;-77
2022/09/05 13:11:45;;;;;;;3.93;2.20;;;27.60;90.70;;;;;;5095279;28;20226;-78
2022/09/05 13:14:42;;;;;;;2.90;2.00;;;27.80;91.10;;;;;;5096311;28;20217;-78
2022/09/05 13:17:38;;;;;;;2.80;1.97;;;27.80;90.10;;;;;;5096235;28;20321;-76
2022/09/05 13:20:18;;;;;;;1.93;1.70;;;27.70;91.20;;;;;;5095753;28;20245;-77
2022/09/05 13:22:50;;;;;;;2.73;1.80;;;27.70;89.80;;;;;;5095417;28;20246;-77
2022/09/05 13:25:25;;;;;;;3.57;1.90;;;27.60;91.50;;;;;;5096166;28;20281;-75
2022/09/05 13:28:05;;;;;;;3.20;1.90;;;27.60;91.10;;;;;;5096874;28;20285;-78
2022/09/05 13:30:36;;;;;;;2.20;1.90;;;27.80;90.30;;;;;;5094091;28;20257;-77
2022/09/05 13:33:31;;;;;;;2.07;1.87;;;27.90;90.40;;;;;;5095254;28;20217;-78
2022/09/05 13:36:25;;;;;;;2.27;1.70;;;27.80;90.70;;;;;;5094768;28;20211;-78
2022/09/05 13:39:21;;;;;;;2.73;2.10;;;27.80;90.60;;;;;;5094318;28;20211;-79
2022/09/05 13:41:58;;;;;;;2.40;2.00;;;27.80;90.30;;;;;;5095272;28;20217;-78
2022/09/05 13:44:28;;;;;;;2.93;2.27;;;27.90;90.70;;;;;;5095194;28;20199;-78
2022/09/05 13:47:01;;;;;;;2.20;2.00;;;27.90;90.60;;;;;;5095551;28;20667;-77
2022/09/05 13:49:58;;;;;;;4.43;2.00;;;27.80;90.70;;;;;;5094367;28;20567;-79
2022/09/05 13:52:36;;;;;;;3.37;1.93;;;27.90;90.70;;;;;;5095291;28;20282;-77
2022/09/05 13:55:21;;;;;;;2.40;1.63;;;28.00;90.50;;;;;;5095250;28;20290;-79
2022/09/05 13:57:55;;;;;;;3.33;1.70;;;27.80;89.60;;;;;;5093921;28;20737;-78
2022/09/05 14:00:51;;;;;;;3.47;1.70;;;27.80;90.00;;;;;;5093087;28;20293;-77
2022/09/05 14:04:04;;;;;;;2.90;1.90;;;27.50;91.50;;;;;;5094882;28;20194;-78
2022/09/05 14:06:55;;;;;;;2.20;2.00;;;27.50;90.20;;;;;;5094222;28;20222;-75
2022/09/05 14:10:00;;;;;;;2.17;1.80;;;27.70;91.60;;;;;;5094632;28;20211;-78
2022/09/05 14:12:36;;;;;;;3.90;1.83;;;27.80;90.10;;;;;;5094797;28;20256;-77
2022/09/05 14:15:17;;;;;;;2.00;1.57;;;27.80;90.20;;;;;;5093791;28;20610;-76
2022/09/05 14:18:04;;;;;;;2.60;2.00;;;27.70;90.40;;;;;;5093539;28;20221;-77
2022/09/05 14:23:52;;;;;;;2.43;1.90;;;27.80;91.40;;;;;;5094306;28;20221;-75
2022/09/05 14:26:27;;;;;;;6.30;2.00;;;28.00;91.80;;;;;;5095663;28;20242;-77
2022/09/05 14:29:06;;;;;;;2.40;2.00;;;27.90;91.40;;;;;;5100876;28;20258;-76
2022/09/05 14:31:49;;;;;;;3.67;1.90;;;27.70;91.40;;;;;;5093941;28;20257;-77
2022/09/05 14:34:49;;;;;;;2.40;1.77;;;27.60;91.60;;;;;;5102932;28;20660;-74
2022/09/05 14:37:47;;;;;;;2.07;1.80;;;27.50;92.40;;;;;;5094420;28;20574;-76
2022/09/05 14:41:03;;;;;;;3.60;1.80;;;27.60;90.50;;;;;;5093249;28;20698;-75
2022/09/05 14:44:16;;;;;;;3.90;1.83;;;27.40;90.20;;;;;;5093306;28;20234;-79